createdAt,value
2019-03-11T00:01:43.062Z,52.60
2019-03-11T00:04:14.148Z,52.60
2019-03-11T00:06:44.408Z,52.60
2019-03-11T00:09:14.128Z,52.60
2019-03-11T00:11:45.450Z,52.60
2019-03-11T00:14:15.099Z,52.60
2019-03-11T00:16:44.752Z,52.70
2019-03-11T00:19:14.412Z,52.60
2019-03-11T00:21:44.076Z,52.60
2019-03-11T00:24:13.739Z,52.70
2019-03-11T00:26:43.391Z,52.70
2019-03-11T00:29:13.051Z,52.60
2019-03-11T00:31:43.260Z,53.20
2019-03-11T00:34:12.907Z,52.60
2019-03-11T00:36:42.559Z,52.60
2019-03-11T00:39:12.211Z,53.30
2019-03-11T00:41:41.864Z,53.30
2019-03-11T00:44:11.515Z,53.20
2019-03-11T00:46:41.167Z,53.30
2019-03-11T00:49:10.819Z,53.30
2019-03-11T00:51:40.472Z,53.20
2019-03-11T00:54:10.124Z,53.20
2019-03-11T00:56:39.790Z,53.30
2019-03-11T00:59:09.435Z,53.30
2019-03-11T01:01:39.090Z,52.70
2019-03-11T01:04:09.120Z,52.60
2019-03-11T01:06:38.764Z,53.20
2019-03-11T01:09:08.483Z,53.20
2019-03-11T01:11:38.600Z,53.30
2019-03-11T01:14:09.424Z,52.60
2019-03-11T01:16:39.076Z,52.60
2019-03-11T01:19:09.906Z,53.80
2019-03-11T01:21:39.557Z,53.90
2019-03-11T01:26:38.449Z,52.70
2019-03-11T01:29:08.411Z,52.60
2019-03-11T01:31:38.069Z,53.20
2019-03-11T01:34:07.715Z,53.80
2019-03-11T01:39:07.057Z,52.90
2019-03-11T01:41:36.712Z,52.60
2019-03-11T01:44:06.365Z,53.20
2019-03-11T01:46:36.011Z,53.20
2019-03-11T01:49:05.731Z,53.50
2019-03-11T01:51:35.387Z,53.90
2019-03-11T01:54:05.036Z,53.20
2019-03-11T01:56:34.695Z,53.20
2019-03-11T01:59:04.343Z,53.20
2019-03-11T02:01:34.008Z,52.80
2019-03-11T02:04:03.657Z,53.50
2019-03-11T02:06:33.307Z,53.30
2019-03-11T02:09:03.463Z,53.20
2019-03-11T02:11:34.784Z,53.20
2019-03-11T02:14:04.447Z,52.60
2019-03-11T02:16:34.121Z,53.40
2019-03-11T02:19:03.835Z,53.20
2019-03-11T02:21:33.556Z,53.20
2019-03-11T02:24:03.215Z,53.20
2019-03-11T02:26:32.912Z,52.60
2019-03-11T02:29:02.823Z,53.60
2019-03-11T02:31:33.744Z,53.20
2019-03-11T02:34:03.403Z,53.80
2019-03-11T02:36:33.068Z,52.50
2019-03-11T02:39:03.214Z,53.10
2019-03-11T02:41:34.457Z,53.20
2019-03-11T02:44:04.111Z,53.10
2019-03-11T02:46:33.769Z,53.10
2019-03-11T02:49:03.430Z,52.50
2019-03-11T02:54:02.294Z,53.20
2019-03-11T02:56:31.945Z,52.50
2019-03-11T02:59:01.606Z,52.60
2019-03-11T03:01:41.885Z,53.10
2019-03-11T03:04:13.178Z,53.10
2019-03-11T03:06:42.824Z,53.10
2019-03-11T03:09:14.048Z,53.30
2019-03-11T03:11:43.704Z,53.10
2019-03-11T03:14:13.358Z,52.50
2019-03-11T03:16:43.022Z,52.50
2019-03-11T03:19:12.677Z,52.40
2019-03-11T03:21:42.400Z,53.70
2019-03-11T03:24:12.044Z,52.50
2019-03-11T03:26:41.710Z,53.10
2019-03-11T03:29:11.357Z,52.60
2019-03-11T03:31:41.012Z,53.10
2019-03-11T03:34:10.695Z,52.50
2019-03-11T03:36:40.401Z,52.60
2019-03-11T03:39:10.051Z,52.50
2019-03-11T03:41:39.728Z,52.50
2019-03-11T03:44:09.393Z,52.50
2019-03-11T03:46:39.107Z,52.40
2019-03-11T03:49:08.765Z,52.60
2019-03-11T03:51:38.420Z,52.50
2019-03-11T03:54:08.076Z,52.50
2019-03-11T03:56:37.733Z,52.50
2019-03-11T04:01:36.621Z,52.50
2019-03-11T04:06:35.519Z,53.10
2019-03-11T04:09:05.454Z,52.40
2019-03-11T04:11:35.884Z,52.50
2019-03-11T04:14:05.751Z,53.10
2019-03-11T04:16:35.410Z,52.50
2019-03-11T04:19:05.123Z,53.00
2019-03-11T04:21:34.794Z,53.10
2019-03-11T04:24:04.453Z,52.50
2019-03-11T04:26:34.100Z,52.50
2019-03-11T04:29:03.796Z,53.10
2019-03-11T04:31:33.480Z,52.60
2019-03-11T04:34:03.141Z,53.20
2019-03-11T04:36:32.791Z,52.50
2019-03-11T04:39:02.469Z,53.10
2019-03-11T04:41:33.579Z,52.60
2019-03-11T04:44:03.236Z,53.20
2019-03-11T04:46:32.911Z,53.10
2019-03-11T04:49:02.660Z,53.10
2019-03-11T04:51:32.316Z,53.00
2019-03-11T04:54:01.969Z,53.10
2019-03-11T04:56:31.628Z,53.00
2019-03-11T04:59:12.675Z,53.10
2019-03-11T05:01:42.406Z,53.30
2019-03-11T05:04:12.167Z,53.10
2019-03-11T05:06:41.820Z,53.10
2019-03-11T05:09:11.480Z,53.10
2019-03-11T05:11:41.130Z,53.10
2019-03-11T05:14:10.793Z,52.50
2019-03-11T05:16:40.486Z,52.50
2019-03-11T05:19:10.130Z,53.20
2019-03-11T05:21:39.779Z,53.10
2019-03-11T05:24:09.446Z,53.10
2019-03-11T05:26:39.096Z,53.20
2019-03-11T05:29:08.777Z,53.20
2019-03-11T05:31:38.481Z,52.50
2019-03-11T05:34:08.147Z,52.50
2019-03-11T05:36:37.795Z,53.10
2019-03-11T05:39:07.912Z,53.10
2019-03-11T05:41:37.564Z,53.10
2019-03-11T05:44:07.231Z,52.50
2019-03-11T05:46:36.899Z,53.60
2019-03-11T05:49:06.624Z,52.30
2019-03-11T05:51:36.276Z,52.50
2019-03-11T05:54:05.937Z,53.10
2019-03-11T05:56:35.582Z,53.60
2019-03-11T05:59:05.235Z,53.20
2019-03-11T06:01:35.155Z,52.40
2019-03-11T06:04:04.816Z,52.50
2019-03-11T06:06:34.468Z,53.10
2019-03-11T06:09:06.866Z,53.20
2019-03-11T06:11:36.512Z,53.20
2019-03-11T06:14:06.169Z,53.10
2019-03-11T06:16:35.820Z,52.50
2019-03-11T06:19:05.463Z,53.70
2019-03-11T06:21:36.757Z,53.60
2019-03-11T06:24:06.408Z,53.40
2019-03-11T06:26:36.060Z,52.60
2019-03-11T06:29:05.716Z,52.60
2019-03-11T06:31:35.373Z,52.70
2019-03-11T06:34:05.027Z,53.30
2019-03-11T06:36:34.683Z,52.60
2019-03-11T06:39:06.358Z,53.30
2019-03-11T06:41:36.213Z,53.30
2019-03-11T06:44:05.863Z,53.30
2019-03-11T06:46:35.524Z,52.60
2019-03-11T06:49:05.256Z,53.10
2019-03-11T06:51:34.916Z,52.50
2019-03-11T06:54:04.760Z,53.10
2019-03-11T06:56:34.417Z,52.40
2019-03-11T06:59:04.076Z,52.20
2019-03-11T07:01:33.723Z,52.20
2019-03-11T07:04:03.389Z,52.80
2019-03-11T07:06:33.035Z,52.10
2019-03-11T07:09:03.168Z,52.60
2019-03-11T07:11:34.468Z,51.90
2019-03-11T07:14:04.123Z,51.90
2019-03-11T07:16:33.787Z,51.80
2019-03-11T07:19:03.725Z,51.80
2019-03-11T07:21:33.367Z,51.80
2019-03-11T07:24:03.020Z,51.80
2019-03-11T07:26:32.667Z,50.60
2019-03-11T07:29:02.324Z,51.40
2019-03-11T07:31:31.972Z,51.70
2019-03-11T07:34:01.631Z,51.70
2019-03-11T07:39:01.192Z,51.50
2019-03-11T07:41:33.367Z,51.50
2019-03-11T07:44:03.092Z,52.00
2019-03-11T07:46:33.063Z,51.90
2019-03-11T07:49:02.718Z,51.90
2019-03-11T07:51:32.371Z,51.60
2019-03-11T07:54:02.108Z,52.70
2019-03-11T07:56:32.382Z,51.50
2019-03-11T07:59:02.609Z,52.10
2019-03-11T08:01:32.552Z,51.50
2019-03-11T08:04:02.212Z,51.50
2019-03-11T08:06:31.887Z,52.00
2019-03-11T08:09:02.110Z,51.80
2019-03-11T08:11:33.360Z,51.30
2019-03-11T08:14:03.009Z,51.30
2019-03-11T08:16:33.288Z,51.10
2019-03-11T08:19:03.512Z,51.10
2019-03-11T08:21:34.624Z,51.20
2019-03-11T08:24:04.831Z,52.10
2019-03-11T08:26:35.041Z,50.90
2019-03-11T08:29:05.254Z,50.70
2019-03-11T08:31:35.470Z,51.30
2019-03-11T08:34:05.686Z,51.20
2019-03-11T08:36:35.891Z,50.60
2019-03-11T08:39:08.656Z,50.70
2019-03-11T08:41:40.099Z,50.70
2019-03-11T08:44:09.821Z,50.90
2019-03-11T08:46:40.043Z,51.30
2019-03-11T08:49:10.261Z,50.90
2019-03-11T08:51:40.481Z,51.40
2019-03-11T08:54:10.698Z,51.20
2019-03-11T08:56:40.906Z,51.40
2019-03-11T08:59:11.116Z,51.50
2019-03-11T09:01:41.331Z,50.90
2019-03-11T09:04:11.547Z,50.90
2019-03-11T09:06:41.775Z,51.50
2019-03-11T09:09:12.327Z,51.50
2019-03-11T09:11:42.536Z,51.30
2019-03-11T09:14:12.820Z,50.80
2019-03-11T09:16:43.036Z,50.70
2019-03-11T09:19:13.244Z,50.70
2019-03-11T09:21:43.464Z,50.70
2019-03-11T09:24:19.077Z,50.80
2019-03-11T09:26:45.991Z,50.80
2019-03-11T09:29:15.924Z,51.00
2019-03-11T09:31:46.176Z,50.90
2019-03-11T09:34:16.384Z,50.90
2019-03-11T09:36:46.599Z,50.80
2019-03-11T09:39:16.824Z,50.80
2019-03-11T09:41:47.340Z,50.70
2019-03-11T09:44:17.845Z,50.80
2019-03-11T09:46:48.071Z,50.90
2019-03-11T09:49:18.288Z,50.90
2019-03-11T09:51:48.508Z,50.80
2019-03-11T09:54:18.719Z,50.90
2019-03-11T09:56:48.931Z,51.10
2019-03-11T09:59:19.404Z,51.10
2019-03-11T10:04:19.423Z,50.90
2019-03-11T10:16:48.775Z,51.00
2019-03-11T10:21:48.767Z,50.90
2019-03-11T10:24:18.976Z,50.80
2019-03-11T10:26:49.191Z,50.80
2019-03-11T10:31:49.280Z,50.90
2019-03-11T10:36:49.616Z,50.90
2019-03-11T10:39:19.836Z,50.80
2019-03-11T10:41:50.062Z,50.70
2019-03-11T10:44:20.267Z,50.60
2019-03-11T10:46:50.239Z,50.80
2019-03-11T10:49:20.456Z,50.80
2019-03-11T10:51:50.672Z,50.70
2019-03-11T10:54:20.891Z,50.50
2019-03-11T10:56:51.109Z,50.60
2019-03-11T10:59:21.392Z,50.50
2019-03-11T11:01:51.378Z,50.50
2019-03-11T11:04:21.600Z,50.60
2019-03-11T11:06:51.813Z,50.60
2019-03-11T11:09:22.027Z,50.50
2019-03-11T11:11:52.247Z,50.60
2019-03-11T11:14:22.463Z,50.30
2019-03-11T11:19:22.447Z,50.50
2019-03-11T11:21:52.668Z,50.50
2019-03-11T11:24:23.000Z,50.50
2019-03-11T11:26:53.281Z,50.60
2019-03-11T11:29:23.505Z,50.50
2019-03-11T11:31:53.728Z,50.50
2019-03-11T11:36:53.800Z,50.60
2019-03-11T11:39:24.324Z,50.40
2019-03-11T11:46:53.599Z,50.40
2019-03-11T11:49:23.818Z,50.60
2019-03-11T11:51:54.027Z,50.40
2019-03-11T11:54:24.257Z,50.50
2019-03-11T11:56:54.468Z,50.40
2019-03-11T12:02:03.698Z,50.60
2019-03-11T12:04:29.302Z,50.50
2019-03-11T12:11:59.083Z,50.80
2019-03-11T12:14:29.296Z,51.10
2019-03-11T12:16:59.522Z,51.10
2019-03-11T12:19:29.736Z,51.60
2019-03-11T12:22:00.219Z,51.60
2019-03-11T12:24:30.440Z,51.80
2019-03-11T12:27:00.784Z,50.50
2019-03-11T12:29:31.699Z,50.30
2019-03-11T12:32:01.922Z,48.80
2019-03-11T12:34:32.197Z,49.70
2019-03-11T12:37:02.448Z,51.20
2019-03-11T12:39:32.728Z,51.20
2019-03-11T12:42:02.945Z,51.50
2019-03-11T12:44:33.159Z,50.80
2019-03-11T12:47:03.379Z,50.60
2019-03-11T12:49:33.597Z,51.00
2019-03-11T12:52:03.528Z,50.90
2019-03-11T12:54:33.874Z,50.90
2019-03-11T12:57:04.094Z,51.70
2019-03-11T12:59:40.546Z,50.40
2019-03-11T13:02:06.485Z,51.10
2019-03-11T13:04:36.888Z,50.60
2019-03-11T13:07:07.095Z,50.40
2019-03-11T13:09:37.660Z,50.40
2019-03-11T13:17:07.503Z,50.60
2019-03-11T13:19:39.692Z,50.30
2019-03-11T13:22:10.014Z,50.30
2019-03-11T13:24:40.228Z,50.30
2019-03-11T13:27:10.444Z,50.30
2019-03-11T13:29:40.657Z,50.20
2019-03-11T13:32:10.872Z,50.60
2019-03-11T13:34:41.087Z,50.50
2019-03-11T13:37:11.308Z,50.40
2019-03-11T13:39:41.870Z,50.40
2019-03-11T13:42:12.156Z,50.40
2019-03-11T13:44:42.647Z,50.30
2019-03-11T13:47:12.855Z,50.20
2019-03-11T13:49:43.072Z,50.40
2019-03-11T13:52:13.292Z,50.50
2019-03-11T13:54:43.509Z,50.20
2019-03-11T13:57:13.732Z,50.20
2019-03-11T13:59:43.952Z,50.10
2019-03-11T14:02:14.249Z,50.20
2019-03-11T14:04:45.746Z,50.30
2019-03-11T14:07:16.225Z,50.30
2019-03-11T14:09:46.468Z,50.30
2019-03-11T14:12:16.688Z,50.50
2019-03-11T14:14:46.899Z,50.50
2019-03-11T14:17:17.134Z,50.40
2019-03-11T14:19:47.332Z,50.40
2019-03-11T14:22:17.552Z,50.30
2019-03-11T14:24:47.768Z,50.40
2019-03-11T14:27:18.043Z,50.50
2019-03-11T14:29:48.272Z,50.10
2019-03-11T14:32:18.483Z,50.30
2019-03-11T14:34:50.295Z,50.20
2019-03-11T14:37:21.250Z,50.20
2019-03-11T14:39:52.008Z,50.30
2019-03-11T14:42:22.299Z,50.30
2019-03-11T14:44:53.692Z,50.90
2019-03-11T14:47:23.926Z,50.10
2019-03-11T14:49:54.213Z,50.00
2019-03-11T14:52:24.641Z,50.00
2019-03-11T14:54:54.851Z,50.20
2019-03-11T14:57:25.070Z,50.20
2019-03-11T14:59:55.279Z,50.30
2019-03-11T15:02:25.488Z,50.50
2019-03-11T15:04:55.782Z,50.40
2019-03-11T15:07:25.993Z,50.60
2019-03-11T15:09:56.232Z,50.50
2019-03-11T15:12:26.450Z,50.70
2019-03-11T15:14:56.673Z,50.80
2019-03-11T15:17:27.028Z,50.70
2019-03-11T15:19:57.239Z,50.90
2019-03-11T15:24:57.228Z,51.00
2019-03-11T15:27:27.437Z,51.20
2019-03-11T15:29:58.854Z,51.30
2019-03-11T15:32:29.076Z,51.30
2019-03-11T15:34:59.295Z,51.40
2019-03-11T15:37:29.675Z,51.20
2019-03-11T15:39:59.916Z,51.40
2019-03-11T15:42:30.136Z,51.10
2019-03-11T15:45:00.405Z,52.00
2019-03-11T15:47:30.642Z,51.20
2019-03-11T15:50:00.866Z,51.50
2019-03-11T15:55:00.852Z,51.40
2019-03-11T15:57:38.742Z,51.00
2019-03-11T16:00:03.808Z,51.00
2019-03-11T16:02:35.499Z,50.90
2019-03-11T16:05:05.975Z,50.90
2019-03-11T16:07:36.328Z,50.70
2019-03-11T16:10:16.686Z,51.20
2019-03-11T16:12:41.887Z,50.30
2019-03-11T16:15:12.945Z,50.20
2019-03-11T16:17:43.223Z,50.00
2019-03-11T16:20:21.739Z,49.60
2019-03-11T16:25:22.896Z,49.40
2019-03-11T16:27:53.108Z,48.70
2019-03-11T16:30:27.351Z,47.90
2019-03-11T16:33:00.278Z,47.50
2019-03-11T16:35:29.603Z,47.50
2019-03-11T16:37:59.808Z,47.40
2019-03-11T16:40:30.379Z,47.70
2019-03-11T16:43:00.668Z,47.50
2019-03-11T16:45:30.948Z,48.30
2019-03-11T16:48:01.163Z,48.00
2019-03-11T16:50:31.371Z,48.40
2019-03-11T16:53:01.579Z,48.60
2019-03-11T16:55:45.020Z,49.20
2019-03-11T16:58:15.236Z,49.20
2019-03-11T17:00:47.119Z,49.30
2019-03-11T17:03:17.569Z,49.20
2019-03-11T17:05:47.779Z,49.20
2019-03-11T17:08:18.199Z,49.10
2019-03-11T17:10:49.707Z,49.40
2019-03-11T17:15:50.044Z,49.50
2019-03-11T17:18:20.259Z,49.60
2019-03-11T17:20:50.481Z,49.90
2019-03-11T17:23:20.691Z,50.20
2019-03-11T17:25:50.912Z,50.00
2019-03-11T17:28:21.399Z,50.10
2019-03-11T17:30:51.612Z,50.20
2019-03-11T17:33:21.892Z,50.30
2019-03-11T17:35:52.132Z,50.40
2019-03-11T17:40:52.516Z,50.60
2019-03-11T17:43:22.800Z,50.50
2019-03-11T17:45:53.020Z,50.70
2019-03-11T17:48:23.314Z,50.80
2019-03-11T17:50:53.672Z,50.80
2019-03-11T17:53:24.155Z,50.90
2019-03-11T17:55:54.447Z,50.90
2019-03-11T17:58:24.661Z,50.90
2019-03-11T18:00:56.008Z,51.00
2019-03-11T18:03:26.149Z,51.10
2019-03-11T18:05:57.212Z,51.20
2019-03-11T18:08:27.631Z,51.10
2019-03-11T18:10:57.848Z,51.10
2019-03-11T18:15:57.847Z,51.20
2019-03-11T18:18:33.104Z,51.50
2019-03-11T18:20:59.990Z,51.40
2019-03-11T18:23:31.647Z,51.30
2019-03-11T18:26:01.860Z,51.30
2019-03-11T18:28:32.078Z,51.20
2019-03-11T18:31:02.306Z,51.20
2019-03-11T18:33:33.679Z,51.20
2019-03-11T18:36:03.919Z,51.30
2019-03-11T18:38:34.431Z,51.30
2019-03-11T18:41:04.743Z,51.40
2019-03-11T18:43:42.609Z,51.30
2019-03-11T18:46:06.869Z,51.60
2019-03-11T18:48:37.144Z,51.20
2019-03-11T18:51:11.227Z,51.30
2019-03-11T18:53:39.047Z,51.50
2019-03-11T18:56:09.307Z,51.50
2019-03-11T19:01:09.404Z,51.30
2019-03-11T19:03:39.672Z,51.20
2019-03-11T19:06:09.855Z,51.00
2019-03-11T19:11:10.100Z,51.30
2019-03-11T19:13:40.392Z,51.50
2019-03-11T19:16:10.680Z,51.00
2019-03-11T19:18:40.984Z,50.90
2019-03-11T19:21:11.240Z,51.70
2019-03-11T19:23:41.469Z,51.20
2019-03-11T19:26:12.856Z,51.30
2019-03-11T19:28:42.553Z,51.50
2019-03-11T19:31:12.824Z,51.30
2019-03-11T19:33:43.049Z,51.60
2019-03-11T19:36:13.823Z,52.20
2019-03-11T19:41:14.140Z,52.00
2019-03-11T19:43:44.366Z,52.10
2019-03-11T19:46:14.780Z,52.00
2019-03-11T19:48:45.085Z,52.00
2019-03-11T19:51:15.375Z,52.50
2019-03-11T19:53:45.646Z,52.30
2019-03-11T19:56:15.946Z,52.40
2019-03-11T19:58:46.232Z,52.50
2019-03-11T20:01:16.535Z,52.60
2019-03-11T20:03:46.865Z,52.70
2019-03-11T20:06:17.144Z,52.80
2019-03-11T20:08:47.470Z,52.60
2019-03-11T20:11:18.490Z,52.80
2019-03-11T20:13:48.776Z,52.60
2019-03-11T20:16:19.391Z,52.90
2019-03-11T20:18:49.830Z,52.80
2019-03-11T20:21:20.338Z,52.70
2019-03-11T20:26:20.593Z,52.80
2019-03-11T20:28:50.979Z,52.80
2019-03-11T20:33:51.254Z,52.80
2019-03-11T20:36:21.658Z,52.80
2019-03-11T20:38:52.301Z,52.80
2019-03-11T20:43:52.828Z,52.90
2019-03-11T20:46:23.266Z,52.80
2019-03-11T20:48:53.508Z,52.80
2019-03-11T20:51:23.773Z,52.90
2019-03-11T20:53:54.062Z,52.90
2019-03-11T20:56:24.317Z,53.00
2019-03-11T21:01:24.017Z,52.90
2019-03-11T21:03:54.705Z,53.00
2019-03-11T21:06:25.176Z,53.50
2019-03-11T21:08:55.839Z,53.10
2019-03-11T21:16:25.872Z,52.80
2019-03-11T21:18:55.636Z,53.00
2019-03-11T21:21:26.264Z,52.90
2019-03-11T21:24:02.053Z,53.00
2019-03-11T21:26:27.925Z,53.00
2019-03-11T21:29:02.180Z,53.00
2019-03-11T21:31:31.526Z,53.00
2019-03-11T21:34:01.850Z,53.00
2019-03-11T21:36:32.189Z,53.10
2019-03-11T21:39:02.801Z,53.00
2019-03-11T21:41:34.260Z,53.00
2019-03-11T21:44:04.198Z,53.00
2019-03-11T21:46:34.503Z,53.10
2019-03-11T21:49:04.487Z,53.10
2019-03-11T21:54:03.473Z,53.10
2019-03-11T21:56:33.190Z,53.10
2019-03-11T21:59:02.904Z,53.10
2019-03-11T22:04:03.587Z,53.00
2019-03-11T22:09:06.313Z,53.00
2019-03-11T22:14:08.025Z,53.50
2019-03-11T22:19:07.584Z,53.10
2019-03-11T22:21:37.887Z,53.10
2019-03-11T22:24:07.560Z,53.10
2019-03-11T22:26:37.228Z,53.10
2019-03-11T22:29:06.904Z,53.10
2019-03-11T22:34:06.413Z,53.00
2019-03-11T22:36:36.716Z,53.10
2019-03-11T22:39:06.717Z,53.20
2019-03-11T22:41:36.649Z,53.10
2019-03-11T22:44:06.320Z,53.10
2019-03-11T22:46:35.988Z,53.10
2019-03-11T22:49:05.663Z,53.10
2019-03-11T22:51:35.355Z,53.20
2019-03-11T22:54:05.035Z,53.10
2019-03-11T22:56:34.996Z,53.20
2019-03-11T22:59:04.655Z,53.10
2019-03-11T23:01:34.435Z,53.20
2019-03-11T23:04:04.436Z,53.10
2019-03-11T23:09:04.611Z,53.90
2019-03-11T23:16:34.174Z,52.90
2019-03-11T23:29:01.177Z,53.10
2019-03-11T23:31:30.909Z,53.10
2019-03-11T23:34:01.850Z,53.10
2019-03-11T23:36:31.508Z,53.10
2019-03-11T23:39:01.169Z,52.50
2019-03-11T23:41:32.431Z,53.10
2019-03-11T23:44:02.135Z,53.30
2019-03-11T23:46:31.777Z,53.00
2019-03-11T23:49:01.435Z,52.30
2019-03-11T23:51:31.090Z,52.90
2019-03-11T23:54:00.753Z,53.00
2019-03-11T23:56:30.421Z,52.30
2019-03-11T23:59:00.075Z,52.90
